Time;durP1;ratioP1;P1;durP2;ratioP2;P2;SDS_P1;SDS_P2;PMS_P1;PMS_P2;Temp;Humidity;BMP_temperature;BMP_pressure;BME280_temperature;BME280_humidity;BME280_pressure;Samples;Min_cycle;Max_cycle;Signal;HPM_P1;HPM_P2
2023/06/30 00:01:29;;;;;;;8.00;4.10;;;;;;;-128.00;-1.00;-1.00;18482;288;7505780;-32
2023/06/30 00:03:56;;;;;;;3.80;3.20;;;;;;;-128.00;-1.00;-1.00;18879;295;7504370;-32
2023/06/30 00:06:22;;;;;;;5.40;4.80;;;;;;;-128.00;-1.00;-1.00;18482;288;7504790;-31
2023/06/30 00:08:48;;;;;;;3.30;3.00;;;;;;;-128.00;-1.00;-1.00;18484;295;7504834;-31
2023/06/30 00:11:15;;;;;;;6.20;5.00;;;;;;;-128.00;-1.00;-1.00;18489;335;7504789;-33
2023/06/30 00:13:40;;;;;;;5.10;3.30;;;;;;;-128.00;-1.00;-1.00;18456;295;7506659;-34
2023/06/30 00:16:06;;;;;;;3.50;3.00;;;;;;;-128.00;-1.00;-1.00;18847;288;7504547;-31
2023/06/30 00:18:32;;;;;;;3.30;2.70;;;;;;;-128.00;-1.00;-1.00;18843;288;7504865;-31
2023/06/30 00:20:59;;;;;;;4.70;4.10;;;;;;;-128.00;-1.00;-1.00;18854;288;7504885;-35
2023/06/30 00:23:27;;;;;;;4.90;4.10;;;;;;;-128.00;-1.00;-1.00;18887;295;7505605;-37
2023/06/30 00:25:54;;;;;;;4.10;3.20;;;;;;;-128.00;-1.00;-1.00;18514;295;7504489;-31
2023/06/30 00:28:20;;;;;;;3.10;2.80;;;;;;;-128.00;-1.00;-1.00;18466;295;7506086;-32
2023/06/30 00:30:46;;;;;;;6.70;3.60;;;;;;;-128.00;-1.00;-1.00;18490;295;7506490;-34
2023/06/30 00:33:12;;;;;;;5.10;4.70;;;;;;;-128.00;-1.00;-1.00;18895;318;7504546;-35
2023/06/30 00:35:38;;;;;;;9.00;7.70;;;;;;;-128.00;-1.00;-1.00;18873;295;7504776;-35
2023/06/30 01:17:20;;;;;;;10.60;6.60;;;;;;;-99.98;19.20;19796.93;19585;336;8044868;-31
2023/06/30 01:19:47;;;;;;;11.20;7.50;;;;;;;-128.00;-1.00;-1.00;18075;295;7505074;-36
2023/06/30 01:22:39;;;;;;;9.40;8.60;;;;;;;-128.00;-1.00;-1.00;18461;287;7506651;-36
2023/06/30 01:25:08;;;;;;;6.50;4.60;;;;;;;-128.00;-1.00;-1.00;18470;295;7504466;-33
2023/06/30 01:27:36;;;;;;;7.10;5.30;;;;;;;-128.00;-1.00;-1.00;18464;295;7506057;-35
2023/06/30 01:30:05;;;;;;;7.10;5.00;;;;;;;-128.00;-1.00;-1.00;18445;295;7504306;-31
2023/06/30 01:32:31;;;;;;;6.50;5.90;;;;;;;-128.00;-1.00;-1.00;18491;295;7504645;-31
2023/06/30 01:34:57;;;;;;;7.00;4.20;;;;;;;-128.00;-1.00;-1.00;18482;295;7504769;-34
2023/06/30 01:37:23;;;;;;;5.80;5.20;;;;;;;-128.00;-1.00;-1.00;18883;288;7504657;-34
2023/06/30 01:39:49;;;;;;;7.00;5.90;;;;;;;-128.00;-1.00;-1.00;18892;306;7505158;-32
2023/06/30 01:42:16;;;;;;;38.70;14.30;;;;;;;-128.00;-1.00;-1.00;18892;295;7504961;-31
2023/06/30 01:44:42;;;;;;;32.00;17.10;;;;;;;-128.00;-1.00;-1.00;18507;315;7506203;-35
2023/06/30 01:47:09;;;;;;;12.50;9.90;;;;;;;-128.00;-1.00;-1.00;18521;335;7506161;-35
2023/06/30 01:49:34;;;;;;;10.70;6.50;;;;;;;-128.00;-1.00;-1.00;18477;295;7505097;-31
2023/06/30 01:52:01;;;;;;;6.80;5.50;;;;;;;-128.00;-1.00;-1.00;18476;295;7506779;-31
2023/06/30 01:54:27;;;;;;;4.80;4.30;;;;;;;-128.00;-1.00;-1.00;18470;339;7504951;-31
2023/06/30 01:56:52;;;;;;;7.10;6.50;;;;;;;-128.00;-1.00;-1.00;18476;295;7505959;-31
2023/06/30 01:59:18;;;;;;;15.80;5.80;;;;;;;-128.00;-1.00;-1.00;18478;310;7504466;-31
2023/06/30 02:01:44;;;;;;;10.20;5.20;;;;;;;-128.00;-1.00;-1.00;18878;295;7504617;-32
2023/06/30 02:04:10;;;;;;;11.30;7.50;;;;;;;-128.00;-1.00;-1.00;18884;295;7505133;-30
2023/06/30 02:06:36;;;;;;;12.90;5.40;;;;;;;-128.00;-1.00;-1.00;18917;346;7504738;-35
2023/06/30 02:09:03;;;;;;;47.50;26.40;;;;;;;-128.00;-1.00;-1.00;18890;306;7504622;-34
2023/06/30 02:11:29;;;;;;;12.40;10.10;;;;;;;-128.00;-1.00;-1.00;18470;295;7505992;-34
2023/06/30 02:13:55;;;;;;;8.80;6.90;;;;;;;-128.00;-1.00;-1.00;18877;295;7505012;-35
2023/06/30 02:16:21;;;;;;;39.90;22.20;;;;;;;-128.00;-1.00;-1.00;18872;295;7504320;-35
2023/06/30 02:18:47;;;;;;;17.50;13.20;;;;;;;-128.00;-1.00;-1.00;18880;295;7505247;-32
2023/06/30 02:21:14;;;;;;;18.40;9.40;;;;;;;-128.00;-1.00;-1.00;18498;297;7504447;-35
2023/06/30 02:23:40;;;;;;;6.30;5.80;;;;;;;-128.00;-1.00;-1.00;18460;339;7506695;-36
2023/06/30 02:26:06;;;;;;;5.40;4.30;;;;;;;-128.00;-1.00;-1.00;18490;295;7504984;-31
2023/06/30 02:28:32;;;;;;;16.50;4.40;;;;;;;-128.00;-1.00;-1.00;18500;339;7506668;-31
2023/06/30 02:30:58;;;;;;;13.20;6.30;;;;;;;-128.00;-1.00;-1.00;18466;295;7504335;-32
2023/06/30 02:33:24;;;;;;;11.90;5.10;;;;;;;-128.00;-1.00;-1.00;18494;295;7504658;-31
2023/06/30 02:35:50;;;;;;;9.70;5.40;;;;;;;-128.00;-1.00;-1.00;18502;295;7504872;-32
2023/06/30 02:38:16;;;;;;;4.30;3.90;;;;;;;-128.00;-1.00;-1.00;18460;295;7506391;-35
2023/06/30 02:40:42;;;;;;;5.30;4.70;;;;;;;-128.00;-1.00;-1.00;18457;295;7504496;-35
2023/06/30 02:43:08;;;;;;;12.60;4.90;;;;;;;-128.00;-1.00;-1.00;18446;295;7505050;-35
2023/06/30 02:45:33;;;;;;;6.70;3.60;;;;;;;-128.00;-1.00;-1.00;18470;294;7505154;-35
2023/06/30 02:48:00;;;;;;;7.00;5.30;;;;;;;-128.00;-1.00;-1.00;18880;295;7505225;-35
2023/06/30 02:50:29;;;;;;;12.60;5.30;;;;;;;-128.00;-1.00;-1.00;18876;295;7505114;-32
2023/06/30 02:52:58;;;;;;;22.10;4.50;;;;;;;-128.00;-1.00;-1.00;18477;294;7504285;-31
2023/06/30 02:55:23;;;;;;;11.90;4.50;;;;;;;-128.00;-1.00;-1.00;18485;287;7504672;-31
2023/06/30 02:57:49;;;;;;;9.00;4.70;;;;;;;-128.00;-1.00;-1.00;18442;296;7504693;-35
2023/06/30 03:00:15;;;;;;;6.90;5.10;;;;;;;-128.00;-1.00;-1.00;18488;335;7505032;-35
2023/06/30 03:02:41;;;;;;;4.40;3.80;;;;;;;-128.00;-1.00;-1.00;18493;347;7504532;-36
2023/06/30 03:05:08;;;;;;;5.30;4.80;;;;;;;-128.00;-1.00;-1.00;18482;294;7504674;-32
2023/06/30 03:07:34;;;;;;;7.10;5.60;;;;;;;-128.00;-1.00;-1.00;18452;298;7507077;-33
2023/06/30 03:10:00;;;;;;;10.90;5.10;;;;;;;-128.00;-1.00;-1.00;18467;339;7505193;-31
2023/06/30 03:12:25;;;;;;;6.30;3.80;;;;;;;-128.00;-1.00;-1.00;18481;296;7504397;-31
2023/06/30 03:14:51;;;;;;;7.20;5.50;;;;;;;-128.00;-1.00;-1.00;18915;294;7505376;-35
2023/06/30 03:17:18;;;;;;;6.30;4.90;;;;;;;-128.00;-1.00;-1.00;18877;295;7504306;-35
2023/06/30 03:19:44;;;;;;;6.30;4.50;;;;;;;-128.00;-1.00;-1.00;18863;295;7504785;-32
2023/06/30 03:22:10;;;;;;;7.40;4.60;;;;;;;-128.00;-1.00;-1.00;18475;335;7504870;-32
2023/06/30 03:24:36;;;;;;;4.30;3.90;;;;;;;-128.00;-1.00;-1.00;18466;288;7505037;-33
2023/06/30 03:27:02;;;;;;;5.60;5.10;;;;;;;-128.00;-1.00;-1.00;18476;295;7504731;-32
2023/06/30 03:29:28;;;;;;;5.30;4.30;;;;;;;-128.00;-1.00;-1.00;18461;295;7506253;-36
2023/06/30 03:31:54;;;;;;;14.10;4.60;;;;;;;-128.00;-1.00;-1.00;18464;335;7504881;-36
2023/06/30 03:34:19;;;;;;;5.40;4.90;;;;;;;-128.00;-1.00;-1.00;18469;346;7504950;-32
2023/06/30 03:36:46;;;;;;;7.80;4.70;;;;;;;-128.00;-1.00;-1.00;18877;296;7504979;-36
2023/06/30 03:39:12;;;;;;;10.50;4.20;;;;;;;-128.00;-1.00;-1.00;18869;337;7505521;-31
2023/06/30 03:41:38;;;;;;;13.30;4.50;;;;;;;-128.00;-1.00;-1.00;18877;296;7504519;-32
2023/06/30 03:44:04;;;;;;;10.90;3.20;;;;;;;-128.00;-1.00;-1.00;18895;295;7504361;-33
2023/06/30 03:46:30;;;;;;;4.30;3.50;;;;;;;-128.00;-1.00;-1.00;18888;295;7504537;-33
2023/06/30 03:48:56;;;;;;;4.00;3.30;;;;;;;-128.00;-1.00;-1.00;18893;294;7504563;-32
2023/06/30 03:51:23;;;;;;;7.00;3.40;;;;;;;-128.00;-1.00;-1.00;18877;339;7505006;-35
2023/06/30 03:53:49;;;;;;;8.10;4.20;;;;;;;-128.00;-1.00;-1.00;18863;283;7504571;-32
2023/06/30 03:56:15;;;;;;;4.30;3.60;;;;;;;-128.00;-1.00;-1.00;18856;295;7504304;-31
2023/06/30 03:58:42;;;;;;;8.20;3.90;;;;;;;-128.00;-1.00;-1.00;18913;295;7504981;-36
2023/06/30 04:01:09;;;;;;;3.80;3.40;;;;;;;-128.00;-1.00;-1.00;18886;296;7504999;-34
2023/06/30 04:03:34;;;;;;;3.10;2.70;;;;;;;-128.00;-1.00;-1.00;18481;295;7505021;-34
2023/06/30 04:06:00;;;;;;;6.40;3.30;;;;;;;-128.00;-1.00;-1.00;18490;295;7506583;-32
2023/06/30 04:08:26;;;;;;;4.80;3.30;;;;;;;-128.00;-1.00;-1.00;18885;294;7505201;-31
2023/06/30 04:10:52;;;;;;;6.30;3.70;;;;;;;-128.00;-1.00;-1.00;18887;294;7504984;-31
2023/06/30 04:13:18;;;;;;;3.70;3.30;;;;;;;-128.00;-1.00;-1.00;18880;294;7504599;-31
2023/06/30 04:15:45;;;;;;;5.70;3.20;;;;;;;-128.00;-1.00;-1.00;18889;306;7504789;-36
2023/06/30 04:18:11;;;;;;;7.80;3.70;;;;;;;-128.00;-1.00;-1.00;18888;287;7504588;-35
2023/06/30 04:20:38;;;;;;;3.10;2.80;;;;;;;-128.00;-1.00;-1.00;18860;339;7504276;-35
2023/06/30 04:23:05;;;;;;;2.80;2.40;;;;;;;-128.00;-1.00;-1.00;18484;295;7505182;-33
2023/06/30 04:25:31;;;;;;;4.20;3.50;;;;;;;-128.00;-1.00;-1.00;18896;295;7506077;-33
2023/06/30 04:27:57;;;;;;;6.50;3.50;;;;;;;-128.00;-1.00;-1.00;18873;288;7505143;-31
2023/06/30 04:30:23;;;;;;;3.80;3.30;;;;;;;-128.00;-1.00;-1.00;18872;294;7505119;-36
2023/06/30 04:32:49;;;;;;;4.10;3.10;;;;;;;-128.00;-1.00;-1.00;18886;347;7504419;-37
2023/06/30 04:35:15;;;;;;;4.30;2.60;;;;;;;-128.00;-1.00;-1.00;18904;347;7504296;-33
2023/06/30 04:37:41;;;;;;;4.90;3.50;;;;;;;-128.00;-1.00;-1.00;18868;296;7504510;-33
2023/06/30 04:40:08;;;;;;;9.80;3.70;;;;;;;-128.00;-1.00;-1.00;18894;295;7504523;-34
2023/06/30 04:42:35;;;;;;;3.70;2.30;;;;;;;-128.00;-1.00;-1.00;18466;294;7504427;-32
2023/06/30 04:45:00;;;;;;;4.80;3.30;;;;;;;-128.00;-1.00;-1.00;18493;295;7504949;-33
2023/06/30 04:47:27;;;;;;;5.90;3.40;;;;;;;-128.00;-1.00;-1.00;18871;295;7504514;-36
2023/06/30 04:49:54;;;;;;;6.10;3.30;;;;;;;-128.00;-1.00;-1.00;18478;296;7504679;-32
2023/06/30 04:52:19;;;;;;;3.40;2.10;;;;;;;-128.00;-1.00;-1.00;18517;295;7504993;-35
2023/06/30 04:54:45;;;;;;;5.20;3.90;;;;;;;-128.00;-1.00;-1.00;18489;347;7506556;-36
2023/06/30 04:57:11;;;;;;;5.70;3.60;;;;;;;-128.00;-1.00;-1.00;18476;296;7505194;-36
2023/06/30 04:59:37;;;;;;;6.70;4.30;;;;;;;-128.00;-1.00;-1.00;18469;294;7504650;-35
2023/06/30 05:02:03;;;;;;;3.90;2.50;;;;;;;-128.00;-1.00;-1.00;18505;283;7505960;-31
2023/06/30 05:04:29;;;;;;;4.00;3.30;;;;;;;-128.00;-1.00;-1.00;18503;312;7504614;-35
2023/06/30 05:06:55;;;;;;;4.00;2.70;;;;;;;-128.00;-1.00;-1.00;18864;288;7505233;-32
2023/06/30 05:09:22;;;;;;;9.50;3.70;;;;;;;-128.00;-1.00;-1.00;18872;295;7504514;-32
2023/06/30 05:11:48;;;;;;;5.00;3.80;;;;;;;-128.00;-1.00;-1.00;18860;297;7504776;-33
2023/06/30 05:14:14;;;;;;;5.60;3.90;;;;;;;-128.00;-1.00;-1.00;18867;294;7505145;-37
2023/06/30 05:16:40;;;;;;;6.60;5.00;;;;;;;-128.00;-1.00;-1.00;18917;288;7504640;-35
2023/06/30 05:19:07;;;;;;;6.30;4.30;;;;;;;-128.00;-1.00;-1.00;18887;294;7504223;-33
2023/06/30 05:21:33;;;;;;;5.50;4.30;;;;;;;-128.00;-1.00;-1.00;18865;299;7504342;-35
2023/06/30 05:23:59;;;;;;;6.50;4.00;;;;;;;-128.00;-1.00;-1.00;18478;294;7505120;-33
2023/06/30 05:26:25;;;;;;;7.70;4.10;;;;;;;-128.00;-1.00;-1.00;18905;294;7504315;-31
2023/06/30 05:28:52;;;;;;;4.50;3.10;;;;;;;-128.00;-1.00;-1.00;18897;294;7506000;-32
2023/06/30 05:31:18;;;;;;;4.50;4.00;;;;;;;-128.00;-1.00;-1.00;18869;300;7504875;-36
2023/06/30 05:33:44;;;;;;;11.40;5.10;;;;;;;-128.00;-1.00;-1.00;18469;283;7504181;-36
2023/06/30 05:36:10;;;;;;;11.00;4.80;;;;;;;-128.00;-1.00;-1.00;18915;336;7505367;-32
2023/06/30 05:38:36;;;;;;;7.60;3.80;;;;;;;-128.00;-1.00;-1.00;18899;295;7505205;-32
2023/06/30 05:41:03;;;;;;;8.80;4.00;;;;;;;-128.00;-1.00;-1.00;18879;295;7504339;-32
2023/06/30 05:43:29;;;;;;;5.40;3.90;;;;;;;-128.00;-1.00;-1.00;18876;295;7505180;-36
2023/06/30 05:45:55;;;;;;;5.30;4.50;;;;;;;-128.00;-1.00;-1.00;18903;295;7505207;-33
2023/06/30 05:48:21;;;;;;;5.20;4.20;;;;;;;-128.00;-1.00;-1.00;18877;294;7504942;-33
2023/06/30 05:50:47;;;;;;;7.10;4.60;;;;;;;-128.00;-1.00;-1.00;18886;295;7504283;-37
2023/06/30 05:53:14;;;;;;;8.40;5.50;;;;;;;-128.00;-1.00;-1.00;18898;323;7505978;-33
2023/06/30 05:55:40;;;;;;;11.80;4.80;;;;;;;-128.00;-1.00;-1.00;18921;295;7504435;-37
2023/06/30 05:58:06;;;;;;;5.80;4.60;;;;;;;-128.00;-1.00;-1.00;18887;295;7505468;-31
2023/06/30 06:00:32;;;;;;;5.50;3.50;;;;;;;-128.00;-1.00;-1.00;18896;295;7505028;-32
2023/06/30 06:03:01;;;;;;;5.30;3.40;;;;;;;-128.00;-1.00;-1.00;18870;295;7506345;-32
2023/06/30 06:05:26;;;;;;;7.60;4.30;;;;;;;-128.00;-1.00;-1.00;18469;295;7504339;-36
2023/06/30 06:07:52;;;;;;;5.30;4.20;;;;;;;-128.00;-1.00;-1.00;18479;307;7504442;-32
2023/06/30 06:10:18;;;;;;;5.00;4.00;;;;;;;-128.00;-1.00;-1.00;18485;295;7504578;-31
2023/06/30 06:12:43;;;;;;;4.90;3.70;;;;;;;-128.00;-1.00;-1.00;18455;308;7504645;-32
2023/06/30 06:15:10;;;;;;;4.10;3.70;;;;;;;-128.00;-1.00;-1.00;18890;294;7505369;-32
2023/06/30 06:17:36;;;;;;;8.80;4.60;;;;;;;-128.00;-1.00;-1.00;18854;295;7505103;-32
2023/06/30 06:20:03;;;;;;;5.20;4.60;;;;;;;-128.00;-1.00;-1.00;18867;335;7505363;-33
2023/06/30 06:22:29;;;;;;;3.70;3.20;;;;;;;-128.00;-1.00;-1.00;18471;294;7504541;-32
2023/06/30 06:24:55;;;;;;;4.50;3.60;;;;;;;-128.00;-1.00;-1.00;18452;294;7506258;-32
2023/06/30 06:27:20;;;;;;;4.30;3.90;;;;;;;-128.00;-1.00;-1.00;18473;295;7506013;-32
2023/06/30 06:29:47;;;;;;;5.50;3.80;;;;;;;-128.00;-1.00;-1.00;18855;288;7505166;-36
2023/06/30 06:32:13;;;;;;;6.10;4.10;;;;;;;-128.00;-1.00;-1.00;18882;294;7505371;-36
2023/06/30 06:34:39;;;;;;;4.20;3.20;;;;;;;-128.00;-1.00;-1.00;18893;295;7504891;-37
2023/06/30 06:37:05;;;;;;;4.50;3.60;;;;;;;-128.00;-1.00;-1.00;18877;294;7504877;-32
2023/06/30 06:39:32;;;;;;;4.20;3.30;;;;;;;-128.00;-1.00;-1.00;18879;295;7506079;-35
2023/06/30 06:41:58;;;;;;;3.60;3.30;;;;;;;-128.00;-1.00;-1.00;18890;339;7504357;-35
2023/06/30 06:44:24;;;;;;;4.80;3.30;;;;;;;-128.00;-1.00;-1.00;18885;295;7504880;-36
2023/06/30 06:47:22;;;;;;;4.70;3.50;;;;;;;-128.00;-1.00;-1.00;18904;288;7504306;-33
2023/06/30 06:49:49;;;;;;;4.50;3.40;;;;;;;-128.00;-1.00;-1.00;18449;303;7506085;-36
2023/06/30 06:52:15;;;;;;;6.70;4.20;;;;;;;-128.00;-1.00;-1.00;18870;347;7504598;-32
2023/06/30 06:54:41;;;;;;;7.50;4.00;;;;;;;-128.00;-1.00;-1.00;18879;295;7506605;-31
2023/06/30 06:57:08;;;;;;;3.50;2.80;;;;;;;-128.00;-1.00;-1.00;18920;295;7505162;-35
2023/06/30 06:59:34;;;;;;;2.10;2.00;;;;;;;-128.00;-1.00;-1.00;18452;294;7506179;-35
2023/06/30 07:01:59;;;;;;;2.90;2.60;;;;;;;-128.00;-1.00;-1.00;18478;295;7506213;-36
2023/06/30 07:04:25;;;;;;;8.30;3.30;;;;;;;-128.00;-1.00;-1.00;18473;294;7504276;-35
2023/06/30 07:06:51;;;;;;;5.90;3.10;;;;;;;-128.00;-1.00;-1.00;18865;303;7505120;-32
2023/06/30 07:09:17;;;;;;;9.30;3.30;;;;;;;-128.00;-1.00;-1.00;18886;295;7505386;-35
2023/06/30 07:11:43;;;;;;;6.50;4.40;;;;;;;-128.00;-1.00;-1.00;18892;295;7504307;-35
2023/06/30 07:14:09;;;;;;;4.10;2.90;;;;;;;-128.00;-1.00;-1.00;18865;295;7505968;-33
2023/06/30 07:16:36;;;;;;;6.50;4.10;;;;;;;-128.00;-1.00;-1.00;18880;318;7505087;-35
2023/06/30 07:19:03;;;;;;;6.50;3.60;;;;;;;-128.00;-1.00;-1.00;18872;296;7505251;-31
2023/06/30 07:21:28;;;;;;;3.70;3.10;;;;;;;-128.00;-1.00;-1.00;18486;288;7505274;-33
2023/06/30 07:23:54;;;;;;;3.30;2.60;;;;;;;-128.00;-1.00;-1.00;18482;295;7504835;-37
2023/06/30 07:26:20;;;;;;;4.20;3.70;;;;;;;-128.00;-1.00;-1.00;18470;295;7506128;-32
2023/06/30 07:28:48;;;;;;;4.40;3.30;;;;;;;-128.00;-1.00;-1.00;18894;306;7504176;-33
2023/06/30 07:31:13;;;;;;;3.40;2.70;;;;;;;-128.00;-1.00;-1.00;18470;337;7507171;-33
2023/06/30 07:33:39;;;;;;;3.00;2.80;;;;;;;-128.00;-1.00;-1.00;18859;294;7505190;-37
2023/06/30 07:36:06;;;;;;;5.30;3.60;;;;;;;-128.00;-1.00;-1.00;18858;288;7504292;-34
2023/06/30 07:38:32;;;;;;;5.20;2.80;;;;;;;-128.00;-1.00;-1.00;18866;295;7505850;-36
2023/06/30 07:40:58;;;;;;;2.60;2.40;;;;;;;-128.00;-1.00;-1.00;18890;318;7505557;-35
2023/06/30 07:43:25;;;;;;;3.00;2.40;;;;;;;-128.00;-1.00;-1.00;18895;295;7504918;-32
2023/06/30 07:45:51;;;;;;;4.70;2.60;;;;;;;-128.00;-1.00;-1.00;18861;335;7505861;-36
2023/06/30 07:48:17;;;;;;;3.20;2.40;;;;;;;-128.00;-1.00;-1.00;18848;347;7504438;-32
2023/06/30 07:50:43;;;;;;;3.70;2.80;;;;;;;-128.00;-1.00;-1.00;18858;295;7504551;-32
2023/06/30 07:53:09;;;;;;;4.00;2.80;;;;;;;-128.00;-1.00;-1.00;18858;295;7504621;-36
2023/06/30 07:55:35;;;;;;;4.70;2.60;;;;;;;-128.00;-1.00;-1.00;18903;295;7505487;-36
2023/06/30 07:58:02;;;;;;;4.70;2.80;;;;;;;-128.00;-1.00;-1.00;18884;294;7504638;-33
2023/06/30 08:00:29;;;;;;;6.50;2.50;;;;;;;-128.00;-1.00;-1.00;18905;294;7504760;-35
2023/06/30 08:02:54;;;;;;;4.40;2.50;;;;;;;-128.00;-1.00;-1.00;18467;288;7506168;-32
2023/06/30 08:05:20;;;;;;;3.10;2.30;;;;;;;-128.00;-1.00;-1.00;18453;347;7506484;-36
2023/06/30 08:07:46;;;;;;;3.00;2.10;;;;;;;-128.00;-1.00;-1.00;18455;347;7505654;-38
2023/06/30 08:10:12;;;;;;;5.10;2.40;;;;;;;-128.00;-1.00;-1.00;18480;295;7504515;-36
2023/06/30 08:12:38;;;;;;;2.90;2.00;;;;;;;-128.00;-1.00;-1.00;18466;294;7505390;-35
2023/06/30 08:15:05;;;;;;;7.30;2.30;;;;;;;-128.00;-1.00;-1.00;18897;307;7506243;-37
2023/06/30 08:17:30;;;;;;;9.00;2.40;;;;;;;-128.00;-1.00;-1.00;18490;295;7506282;-35
2023/06/30 08:19:56;;;;;;;4.80;2.10;;;;;;;-128.00;-1.00;-1.00;18860;295;7504841;-32
2023/06/30 08:22:22;;;;;;;3.20;2.40;;;;;;;-128.00;-1.00;-1.00;18857;339;7504812;-32
2023/06/30 08:24:49;;;;;;;4.10;2.20;;;;;;;-128.00;-1.00;-1.00;18886;347;7504865;-32
2023/06/30 08:27:17;;;;;;;1.60;1.50;;;;;;;-128.00;-1.00;-1.00;18449;335;7504427;-36
2023/06/30 08:29:43;;;;;;;2.20;1.90;;;;;;;-128.00;-1.00;-1.00;18460;295;7504757;-32
2023/06/30 08:32:09;;;;;;;4.00;1.30;;;;;;;-128.00;-1.00;-1.00;18496;294;7504768;-33
2023/06/30 08:34:36;;;;;;;7.30;2.30;;;;;;;-128.00;-1.00;-1.00;18874;335;7505152;-35
2023/06/30 08:37:02;;;;;;;3.20;2.40;;;;;;;-128.00;-1.00;-1.00;18468;322;7505461;-32
2023/06/30 08:39:28;;;;;;;5.10;1.50;;;;;;;-128.00;-1.00;-1.00;18464;296;7504921;-32
2023/06/30 08:41:54;;;;;;;2.40;2.10;;;;;;;-128.00;-1.00;-1.00;18482;295;7505834;-34
2023/06/30 08:44:23;;;;;;;1.90;1.70;;;;;;;-128.00;-1.00;-1.00;18494;297;7504364;-32
2023/06/30 08:46:51;;;;;;;3.40;3.10;;;;;;;-128.00;-1.00;-1.00;18467;347;7504767;-36
2023/06/30 08:49:16;;;;;;;5.10;2.30;;;;;;;-128.00;-1.00;-1.00;18463;288;7506893;-36
2023/06/30 08:51:43;;;;;;;8.60;2.40;;;;;;;-128.00;-1.00;-1.00;18888;295;7504656;-32
2023/06/30 08:54:09;;;;;;;3.90;2.10;;;;;;;-128.00;-1.00;-1.00;18880;307;7504146;-33
2023/06/30 08:56:36;;;;;;;7.50;2.40;;;;;;;-128.00;-1.00;-1.00;18899;295;7504429;-33
2023/06/30 08:59:01;;;;;;;2.10;1.90;;;;;;;-128.00;-1.00;-1.00;18446;295;7505269;-34
2023/06/30 09:01:27;;;;;;;4.70;2.30;;;;;;;-128.00;-1.00;-1.00;18870;294;7504768;-35
2023/06/30 09:03:54;;;;;;;3.60;2.20;;;;;;;-128.00;-1.00;-1.00;18887;343;7504598;-35
2023/06/30 09:06:20;;;;;;;3.80;2.20;;;;;;;-128.00;-1.00;-1.00;18909;295;7505268;-33
2023/06/30 09:08:53;;;;;;;3.10;1.90;;;;;;;-128.00;-1.00;-1.00;18881;296;7505445;-34
2023/06/30 09:11:18;;;;;;;6.30;2.00;;;;;;;-128.00;-1.00;-1.00;18477;294;7505044;-33
2023/06/30 09:13:45;;;;;;;4.90;2.20;;;;;;;-128.00;-1.00;-1.00;18868;295;7506306;-36
2023/06/30 09:16:17;;;;;;;3.70;2.10;;;;;;;-128.00;-1.00;-1.00;18489;295;7504444;-36
2023/06/30 09:18:44;;;;;;;2.10;1.60;;;;;;;-128.00;-1.00;-1.00;18483;294;7504574;-36
2023/06/30 09:21:10;;;;;;;2.00;1.80;;;;;;;-128.00;-1.00;-1.00;18173;288;8202535;-33
2023/06/30 09:23:37;;;;;;;2.50;1.40;;;;;;;-128.00;-1.00;-1.00;18878;295;7504770;-32
2023/06/30 09:26:03;;;;;;;3.20;1.60;;;;;;;-128.00;-1.00;-1.00;18471;295;7506805;-36
2023/06/30 09:28:34;;;;;;;1.80;1.30;;;;;;;-128.00;-1.00;-1.00;18460;295;7506173;-32
2023/06/30 09:31:01;;;;;;;1.30;1.10;;;;;;;-128.00;-1.00;-1.00;18449;294;7505848;-35
2023/06/30 09:33:28;;;;;;;1.90;1.70;;;;;;;-128.00;-1.00;-1.00;18506;296;7504947;-31
2023/06/30 09:35:56;;;;;;;2.80;1.80;;;;;;;-128.00;-1.00;-1.00;18478;307;7504263;-32
2023/06/30 09:38:22;;;;;;;2.30;1.50;;;;;;;-128.00;-1.00;-1.00;18470;295;7504671;-32
2023/06/30 09:40:48;;;;;;;3.70;2.30;;;;;;;-128.00;-1.00;-1.00;18466;295;7504464;-32
2023/06/30 09:43:15;;;;;;;1.80;1.10;;;;;;;-128.00;-1.00;-1.00;18460;322;7505184;-32
2023/06/30 09:45:42;;;;;;;1.90;1.40;;;;;;;-128.00;-1.00;-1.00;18467;298;7504719;-32
2023/06/30 09:48:10;;;;;;;2.60;1.40;;;;;;;-128.00;-1.00;-1.00;18470;295;7505574;-35
2023/06/30 09:50:36;;;;;;;1.30;1.10;;;;;;;-128.00;-1.00;-1.00;18479;283;7506388;-32
2023/06/30 09:53:01;;;;;;;1.10;1.00;;;;;;;-128.00;-1.00;-1.00;18461;295;7505900;-36
2023/06/30 09:55:27;;;;;;;13.80;2.00;;;;;;;-128.00;-1.00;-1.00;18486;318;7506535;-32
2023/06/30 09:57:55;;;;;;;1.90;1.70;;;;;;;-128.00;-1.00;-1.00;18472;295;7504520;-36
2023/06/30 10:00:20;;;;;;;18.60;1.40;;;;;;;-128.00;-1.00;-1.00;18469;339;7504145;-32
2023/06/30 10:03:00;;;;;;;1.20;0.90;;;;;;;-128.00;-1.00;-1.00;18486;294;7505806;-32
2023/06/30 10:05:26;;;;;;;1.80;1.10;;;;;;;-128.00;-1.00;-1.00;18475;334;7504293;-36
2023/06/30 10:07:52;;;;;;;2.10;1.30;;;;;;;-128.00;-1.00;-1.00;18861;295;7504988;-36
2023/06/30 10:10:18;;;;;;;1.80;1.30;;;;;;;-128.00;-1.00;-1.00;18871;295;7504475;-36
2023/06/30 10:12:44;;;;;;;1.60;1.30;;;;;;;-128.00;-1.00;-1.00;18884;295;7504624;-38
2023/06/30 10:15:10;;;;;;;6.10;1.20;;;;;;;-128.00;-1.00;-1.00;18924;295;7504337;-36
2023/06/30 10:17:38;;;;;;;3.10;1.50;;;;;;;-128.00;-1.00;-1.00;18869;288;7504580;-36
2023/06/30 10:20:05;;;;;;;2.00;1.10;;;;;;;-128.00;-1.00;-1.00;18456;295;7504920;-36
2023/06/30 10:22:31;;;;;;;1.70;1.20;;;;;;;-128.00;-1.00;-1.00;18447;295;7505317;-33
2023/06/30 10:24:57;;;;;;;2.10;1.20;;;;;;;-128.00;-1.00;-1.00;18880;294;7504587;-36
2023/06/30 10:27:23;;;;;;;1.20;1.00;;;;;;;-128.00;-1.00;-1.00;18857;306;7504201;-33
2023/06/30 10:29:49;;;;;;;2.10;1.10;;;;;;;-128.00;-1.00;-1.00;18876;295;7505096;-36
2023/06/30 10:32:20;;;;;;;3.30;1.50;;;;;;;-128.00;-1.00;-1.00;18915;295;7504276;-34
2023/06/30 10:34:47;;;;;;;;;;;;;;;-128.00;-1.00;-1.00;18484;295;7504406;-32
2023/06/30 10:37:14;;;;;;;1.80;1.30;;;;;;;-128.00;-1.00;-1.00;18478;288;7505293;-36
2023/06/30 10:39:39;;;;;;;1.40;1.10;;;;;;;-128.00;-1.00;-1.00;18491;294;7505072;-32
2023/06/30 10:42:06;;;;;;;2.30;1.20;;;;;;;-128.00;-1.00;-1.00;18471;295;7504488;-36
2023/06/30 10:44:44;;;;;;;0.90;0.90;;;;;;;-128.00;-1.00;-1.00;18470;295;7505763;-32
2023/06/30 10:47:10;;;;;;;1.40;1.30;;;;;;;-128.00;-1.00;-1.00;18464;295;7505192;-36
2023/06/30 10:49:40;;;;;;;1.50;1.20;;;;;;;-128.00;-1.00;-1.00;18909;294;7504551;-33
2023/06/30 10:52:08;;;;;;;2.00;1.40;;;;;;;-128.00;-1.00;-1.00;18465;295;7504353;-37
2023/06/30 10:54:42;;;;;;;2.70;1.70;;;;;;;-128.00;-1.00;-1.00;18494;295;7504186;-36
2023/06/30 10:57:18;;;;;;;1.40;1.00;;;;;;;-128.00;-1.00;-1.00;18477;295;7505557;-36
2023/06/30 10:59:48;;;;;;;1.30;1.20;;;;;;;-128.00;-1.00;-1.00;18487;295;7505744;-33
2023/06/30 11:02:22;;;;;;;1.30;0.80;;;;;;;-128.00;-1.00;-1.00;18491;283;7504506;-33
2023/06/30 11:04:52;;;;;;;2.00;1.00;;;;;;;-128.00;-1.00;-1.00;18476;295;7505861;-32
2023/06/30 11:07:31;;;;;;;1.40;1.00;;;;;;;-128.00;-1.00;-1.00;18479;336;7504070;-36
2023/06/30 11:09:57;;;;;;;1.50;1.20;;;;;;;-128.00;-1.00;-1.00;18474;295;7504332;-36
2023/06/30 11:12:24;;;;;;;1.90;1.00;;;;;;;-128.00;-1.00;-1.00;18481;295;7506208;-32
2023/06/30 11:14:59;;;;;;;1.40;1.00;;;;;;;-128.00;-1.00;-1.00;18474;295;7504065;-36
2023/06/30 11:17:26;;;;;;;1.50;1.00;;;;;;;-128.00;-1.00;-1.00;18469;295;7504169;-32
2023/06/30 11:20:08;;;;;;;2.40;0.90;;;;;;;-128.00;-1.00;-1.00;18485;295;7506428;-32
2023/06/30 11:22:34;;;;;;;1.60;1.00;;;;;;;-128.00;-1.00;-1.00;18489;294;7504688;-32
2023/06/30 11:25:04;;;;;;;3.50;1.40;;;;;;;-128.00;-1.00;-1.00;18874;306;7504736;-32
2023/06/30 11:27:30;;;;;;;1.80;1.40;;;;;;;-128.00;-1.00;-1.00;18896;295;7506165;-32
2023/06/30 11:29:59;;;;;;;2.60;1.30;;;;;;;-128.00;-1.00;-1.00;18480;322;7504573;-36
2023/06/30 11:32:26;;;;;;;2.60;1.10;;;;;;;-128.00;-1.00;-1.00;18475;294;7506499;-36
2023/06/30 11:34:52;;;;;;;1.20;1.00;;;;;;;-128.00;-1.00;-1.00;18480;347;7504808;-31
2023/06/30 11:37:17;;;;;;;3.00;1.10;;;;;;;-128.00;-1.00;-1.00;18496;339;7504789;-36
2023/06/30 11:39:51;;;;;;;3.10;1.70;;;;;;;-128.00;-1.00;-1.00;18477;295;7505101;-32
2023/06/30 11:42:18;;;;;;;0.80;0.60;;;;;;;-128.00;-1.00;-1.00;18455;335;7506737;-33
2023/06/30 11:44:43;;;;;;;2.60;1.50;;;;;;;-128.00;-1.00;-1.00;18478;295;7504940;-36
2023/06/30 11:47:09;;;;;;;1.60;1.20;;;;;;;-128.00;-1.00;-1.00;18453;295;7504572;-32
2023/06/30 11:49:36;;;;;;;3.30;1.40;;;;;;;-128.00;-1.00;-1.00;18891;295;7504659;-36
2023/06/30 11:52:04;;;;;;;1.90;1.50;;;;;;;-128.00;-1.00;-1.00;18481;295;7506120;-36
2023/06/30 11:54:31;;;;;;;7.10;1.00;;;;;;;-128.00;-1.00;-1.00;18464;294;7504753;-35
2023/06/30 11:57:00;;;;;;;2.10;1.60;;;;;;;-128.00;-1.00;-1.00;18479;295;7504863;-32
2023/06/30 11:59:26;;;;;;;2.40;1.10;;;;;;;-128.00;-1.00;-1.00;18490;347;7505856;-36
2023/06/30 12:01:53;;;;;;;3.30;1.50;;;;;;;-128.00;-1.00;-1.00;18486;294;7504759;-32
2023/06/30 12:04:35;;;;;;;2.10;1.20;;;;;;;-128.00;-1.00;-1.00;18523;295;7506627;-35
2023/06/30 12:07:05;;;;;;;2.10;1.30;;;;;;;-128.00;-1.00;-1.00;18446;295;7506786;-33
2023/06/30 12:09:32;;;;;;;2.50;1.00;;;;;;;-128.00;-1.00;-1.00;18482;295;7504599;-33